Terminal Aerodrome Forecast
Issued by NWS

Current Version | Previous Version | Text Only | Print | Product List | Glossary On
Versions: 1 2 3 4 5 6 7 8 9 10 11 12 13 14 15 16 17 18 19 20
000
FTAK31 PAJN 292200 AAB
TAFAGY
TAF AMD
PAGY 292205Z 2922/3018 22011KT P6SM OVC060
     FM300400 21006KT P6SM VCSH SCT025 OVC050
     FM301500 18004KT 5SM -SHRA BR BKN020 OVC040
      AMD LTD TO CLD VIS AND WIND=

USA.gov is the U.S. government's official web portal to all federal, state and local government web resources and services.